Time;durP1;ratioP1;P1;durP2;ratioP2;P2;SDS_P1;SDS_P2;PMS_P1;PMS_P2;Temp;Humidity;BMP_temperature;BMP_pressure;BME280_temperature;BME280_humidity;BME280_pressure;Samples;Min_cycle;Max_cycle;Signal;HPM_P1;HPM_P2
2021/03/06 00:00:15;;;;;;;4.57;1.00;;;-2.20;99.90;;;;;;5048069;28;20049;-79
2021/03/06 00:02:41;;;;;;;6.28;1.05;;;-2.30;99.90;;;;;;5064588;28;20037;-80
2021/03/06 00:05:07;;;;;;;3.03;0.68;;;-2.30;99.90;;;;;;5064777;28;20041;-80
2021/03/06 00:07:33;;;;;;;4.82;0.90;;;-2.40;99.90;;;;;;5047785;28;20055;-80
2021/03/06 00:09:59;;;;;;;3.58;0.80;;;-2.30;99.90;;;;;;5049378;28;20041;-81
2021/03/06 00:12:24;;;;;;;4.20;1.25;;;-2.40;99.90;;;;;;5064639;28;20041;-81
2021/03/06 00:14:50;;;;;;;3.30;1.00;;;-2.40;99.90;;;;;;5064666;28;20048;-80
2021/03/06 00:17:16;;;;;;;4.70;0.80;;;-2.30;99.90;;;;;;5047916;28;20059;-80
2021/03/06 00:19:41;;;;;;;3.15;1.00;;;-2.40;99.90;;;;;;5048018;28;20056;-81
2021/03/06 00:22:07;;;;;;;2.63;0.85;;;-2.50;99.90;;;;;;5047910;28;20040;-80
2021/03/06 00:24:33;;;;;;;3.97;1.00;;;-2.50;99.90;;;;;;5064348;28;20071;-80
2021/03/06 00:26:59;;;;;;;4.05;0.70;;;-2.40;99.90;;;;;;5047790;28;20037;-81
2021/03/06 00:29:24;;;;;;;4.35;0.77;;;-2.50;99.90;;;;;;5047888;28;20037;-81
2021/03/06 00:31:50;;;;;;;3.35;0.70;;;-2.40;99.90;;;;;;5065648;28;20032;-80
2021/03/06 00:34:16;;;;;;;6.70;0.90;;;-2.40;99.90;;;;;;5065526;28;20045;-81
2021/03/06 00:36:42;;;;;;;3.25;0.90;;;-2.50;99.90;;;;;;5047635;28;20045;-80
2021/03/06 00:39:07;;;;;;;4.95;1.08;;;-2.40;99.90;;;;;;5047572;28;20044;-80
2021/03/06 00:41:33;;;;;;;3.20;0.90;;;-2.50;99.90;;;;;;5064432;28;20163;-80
2021/03/06 00:44:00;;;;;;;4.40;0.70;;;-2.50;99.90;;;;;;5047757;28;20036;-80
2021/03/06 00:46:27;;;;;;;2.78;0.70;;;-2.60;99.90;;;;;;5047676;28;20308;-80
2021/03/06 00:48:52;;;;;;;2.75;0.80;;;-2.50;99.90;;;;;;5047690;28;20036;-81
2021/03/06 00:51:19;;;;;;;3.50;0.80;;;-2.50;99.90;;;;;;5044152;28;20037;-81
2021/03/06 00:53:45;;;;;;;3.67;0.70;;;-2.50;99.90;;;;;;5044307;28;20042;-81
2021/03/06 00:56:10;;;;;;;5.13;0.90;;;-2.50;99.90;;;;;;5027789;28;20034;-80
2021/03/06 00:58:36;;;;;;;7.63;1.10;;;-2.60;99.90;;;;;;5045336;28;20040;-80
2021/03/06 01:01:05;;;;;;;3.85;0.80;;;-2.50;99.90;;;;;;5047497;28;20049;-80
2021/03/06 01:03:30;;;;;;;3.30;0.65;;;-2.50;99.90;;;;;;5048062;28;20060;-81
2021/03/06 01:09:44;;;;;;;5.40;0.70;;;-2.60;99.90;;;;;;5016767;28;20169;-81
2021/03/06 01:12:10;;;;;;;4.82;0.98;;;-2.40;99.90;;;;;;4994085;28;20240;-80
2021/03/06 01:14:36;;;;;;;4.38;0.60;;;-2.50;99.90;;;;;;4994072;28;20041;-80
2021/03/06 01:17:01;;;;;;;4.05;0.90;;;-2.50;99.90;;;;;;5011724;28;20052;-79
2021/03/06 01:19:27;;;;;;;6.10;0.77;;;-2.60;99.90;;;;;;5046344;28;20057;-81
2021/03/06 01:21:52;;;;;;;5.65;0.70;;;-2.60;99.90;;;;;;5030156;28;20068;-80
2021/03/06 01:24:18;;;;;;;6.88;0.70;;;-2.60;99.90;;;;;;5013217;28;20052;-81
2021/03/06 01:26:44;;;;;;;6.50;0.80;;;-2.50;99.90;;;;;;5046608;28;20116;-80
2021/03/06 01:29:09;;;;;;;3.65;0.60;;;-2.50;99.90;;;;;;5046448;28;20034;-80
2021/03/06 01:31:35;;;;;;;2.97;0.50;;;-2.70;99.90;;;;;;5029905;28;20072;-81
2021/03/06 01:34:00;;;;;;;5.72;0.90;;;-2.70;99.90;;;;;;5029669;28;20406;-80
2021/03/06 01:36:26;;;;;;;2.38;0.50;;;-2.70;99.90;;;;;;5029615;28;20046;-81
2021/03/06 01:38:52;;;;;;;4.95;0.73;;;-2.60;99.90;;;;;;5029648;28;20053;-81
2021/03/06 01:41:17;;;;;;;2.30;0.65;;;-2.70;99.90;;;;;;5029476;28;20271;-80
2021/03/06 01:43:43;;;;;;;2.55;0.57;;;-2.80;99.90;;;;;;5046110;28;20061;-81
2021/03/06 01:46:08;;;;;;;4.85;0.80;;;-2.90;99.90;;;;;;5052802;28;20041;-81
2021/03/06 01:48:34;;;;;;;0.10;0.10;;;-2.70;99.90;;;;;;5050384;28;20037;-80
2021/03/06 01:50:59;;;;;;;2.50;2.40;;;-2.70;99.90;;;;;;5063830;28;20045;-81
2021/03/06 01:53:25;;;;;;;0.00;0.00;;;-2.90;99.90;;;;;;5030537;28;20041;-81
2021/03/06 01:55:51;;;;;;;0.00;0.00;;;-2.90;99.90;;;;;;5063573;28;20037;-80
2021/03/06 01:58:17;;;;;;;0.00;0.00;;;-2.90;99.90;;;;;;5030504;28;20071;-80
2021/03/06 02:00:43;;;;;;;0.00;0.00;;;-2.90;99.90;;;;;;5030531;28;20057;-80
2021/03/06 02:03:09;;;;;;;0.00;0.00;;;-2.80;99.90;;;;;;5046770;28;20033;-80
2021/03/06 02:05:38;;;;;;;0.00;0.00;;;-2.80;99.90;;;;;;5030428;28;20056;-83
2021/03/06 02:08:04;;;;;;;0.00;0.00;;;-2.90;99.90;;;;;;5046924;28;20467;-81
2021/03/06 02:10:38;;;;;;;0.00;0.00;;;-3.00;99.90;;;;;;5029042;28;20050;-80
2021/03/06 02:13:10;;;;;;;0.00;0.00;;;-3.00;99.90;;;;;;5010110;28;20453;-80
2021/03/06 02:15:47;;;;;;;0.00;0.00;;;-3.00;99.90;;;;;;5032846;28;20516;-80
2021/03/06 02:18:26;;;;;;;0.00;0.00;;;-3.00;99.90;;;;;;5048009;28;20046;-81
2021/03/06 02:21:25;;;;;;;0.00;0.00;;;-3.00;99.90;;;;;;5013822;28;20049;-80
2021/03/06 02:24:22;;;;;;;0.00;0.00;;;-3.00;99.90;;;;;;5010350;28;20038;-81
2021/03/06 02:27:08;;;;;;;0.00;0.00;;;-3.00;99.90;;;;;;5030083;28;20523;-80
2021/03/06 02:29:40;;;;;;;0.00;0.00;;;-3.00;99.90;;;;;;5046640;28;20037;-80
2021/03/06 02:32:17;;;;;;;0.00;0.00;;;-2.90;99.90;;;;;;5013338;28;20109;-80
2021/03/06 02:35:12;;;;;;;0.00;0.00;;;-3.00;99.90;;;;;;5013506;28;20049;-80
2021/03/06 02:37:46;;;;;;;0.00;0.00;;;-3.00;99.90;;;;;;5029949;28;20101;-81
2021/03/06 02:40:13;;;;;;;0.00;0.00;;;-3.00;99.90;;;;;;5029750;28;20045;-80
2021/03/06 02:42:41;;;;;;;0.00;0.00;;;-3.10;99.90;;;;;;5013295;28;20401;-80
2021/03/06 02:45:07;;;;;;;0.00;0.00;;;-3.00;99.90;;;;;;5013340;28;20554;-80
2021/03/06 02:47:33;;;;;;;0.00;0.00;;;-3.10;99.90;;;;;;5013361;28;20105;-80
2021/03/06 02:50:01;;;;;;;0.00;0.00;;;-3.10;99.90;;;;;;5029524;28;20037;-80
2021/03/06 02:52:27;;;;;;;0.00;0.00;;;-3.10;99.90;;;;;;5013205;28;20410;-80
2021/03/06 02:54:53;;;;;;;0.00;0.00;;;-3.10;99.90;;;;;;5012979;28;20068;-80
2021/03/06 02:57:32;;;;;;;0.00;0.00;;;-3.20;99.90;;;;;;5029461;28;20080;-80
2021/03/06 03:00:28;;;;;;;0.00;0.00;;;-3.30;99.90;;;;;;5029471;28;20060;-80
2021/03/06 03:03:15;;;;;;;0.00;0.00;;;-3.10;99.90;;;;;;5029518;28;20042;-80
2021/03/06 03:05:56;;;;;;;0.00;0.00;;;-3.20;99.90;;;;;;5029186;28;20040;-80
2021/03/06 03:08:34;;;;;;;0.00;0.00;;;-3.20;99.90;;;;;;5029185;28;20034;-80
2021/03/06 03:11:04;;;;;;;0.00;0.00;;;-3.30;99.90;;;;;;5049060;28;20497;-80
2021/03/06 03:13:51;;;;;;;0.00;0.00;;;-3.20;99.90;;;;;;5032320;28;20085;-81
2021/03/06 03:16:29;;;;;;;0.00;0.00;;;-3.30;99.90;;;;;;5055217;28;20037;-80
2021/03/06 03:18:58;;;;;;;0.00;0.00;;;-3.10;99.90;;;;;;5012347;28;20041;-80
2021/03/06 03:21:28;;;;;;;0.00;0.00;;;-3.20;99.90;;;;;;5045620;28;20045;-81
2021/03/06 03:24:03;;;;;;;0.00;0.00;;;-3.30;99.90;;;;;;5028627;28;20037;-80
2021/03/06 03:26:29;;;;;;;0.00;0.00;;;-3.40;99.90;;;;;;5012445;28;20041;-81
2021/03/06 03:28:56;;;;;;;0.00;0.00;;;-3.40;99.90;;;;;;5012166;28;20122;-80
2021/03/06 03:31:24;;;;;;;0.00;0.00;;;-3.40;99.90;;;;;;5028745;28;20037;-80
2021/03/06 03:33:50;;;;;;;0.00;0.00;;;-3.40;99.90;;;;;;5012186;28;20132;-80
2021/03/06 03:36:17;;;;;;;0.00;0.00;;;-3.50;99.90;;;;;;5012154;28;20101;-80
2021/03/06 03:38:45;;;;;;;0.00;0.00;;;-3.60;99.90;;;;;;5028717;28;20132;-80
2021/03/06 03:41:11;;;;;;;0.00;0.00;;;-3.60;99.90;;;;;;5012326;28;20049;-81
2021/03/06 03:43:38;;;;;;;0.00;0.00;;;-3.60;99.90;;;;;;5028307;28;20160;-79
2021/03/06 03:46:05;;;;;;;0.00;0.00;;;-3.50;99.90;;;;;;5011855;28;20045;-80
2021/03/06 03:48:31;;;;;;;0.00;0.00;;;-3.50;99.90;;;;;;5046140;28;20029;-80
2021/03/06 03:50:57;;;;;;;0.00;0.00;;;-3.40;99.90;;;;;;5026078;28;20052;-80
2021/03/06 03:53:24;;;;;;;0.00;0.00;;;-3.50;99.90;;;;;;5048253;28;20112;-80
2021/03/06 03:55:50;;;;;;;0.00;0.00;;;-3.50;99.90;;;;;;5048854;28;20070;-80
2021/03/06 03:58:16;;;;;;;0.00;0.00;;;-3.40;99.90;;;;;;5031642;28;20061;-80
2021/03/06 04:00:41;;;;;;;1.43;1.40;;;-3.50;99.90;;;;;;5031431;28;20113;-80
2021/03/06 04:03:08;;;;;;;0.00;0.00;;;-3.60;99.90;;;;;;5066006;28;20037;-80
2021/03/06 04:05:56;;;;;;;0.00;0.00;;;-3.80;99.90;;;;;;5047711;28;20396;-81
2021/03/06 04:08:22;;;;;;;0.00;0.00;;;-3.70;99.90;;;;;;4968516;28;20039;-81
2021/03/06 04:10:48;;;;;;;0.00;0.00;;;-3.80;99.90;;;;;;4998725;28;20053;-81
2021/03/06 04:13:14;;;;;;;0.00;0.00;;;-3.60;99.90;;;;;;4971595;28;20110;-81
2021/03/06 04:15:39;;;;;;;0.00;0.00;;;-3.50;99.90;;;;;;4971538;28;20108;-80
2021/03/06 04:18:06;;;;;;;0.00;0.00;;;-3.60;99.90;;;;;;4987838;28;20038;-80
2021/03/06 04:20:32;;;;;;;0.00;0.00;;;-3.60;99.90;;;;;;4987764;28;20054;-80
2021/03/06 04:22:59;;;;;;;0.00;0.00;;;-3.60;99.90;;;;;;4987716;28;20062;-81
2021/03/06 04:25:25;;;;;;;0.00;0.00;;;-3.70;99.90;;;;;;4971491;28;20088;-81
2021/03/06 04:27:50;;;;;;;0.00;0.00;;;-3.70;99.90;;;;;;4987891;28;20117;-81
2021/03/06 04:30:16;;;;;;;0.00;0.00;;;-3.70;99.90;;;;;;4987648;28;20042;-80
2021/03/06 04:32:42;;;;;;;0.00;0.00;;;-3.70;99.90;;;;;;5003998;28;20030;-81
2021/03/06 04:35:10;;;;;;;0.07;0.00;;;-3.70;99.90;;;;;;4970725;28;20487;-80
2021/03/06 04:37:36;;;;;;;0.00;0.00;;;-3.70;99.90;;;;;;4971541;28;20045;-80
2021/03/06 04:40:04;;;;;;;0.20;0.20;;;-3.80;99.90;;;;;;4987625;28;20337;-81
2021/03/06 04:42:30;;;;;;;0.00;0.00;;;-3.90;99.90;;;;;;4971301;28;20035;-80
2021/03/06 04:44:56;;;;;;;0.00;0.00;;;-4.00;99.90;;;;;;4992637;28;20112;-80
2021/03/06 04:47:21;;;;;;;0.00;0.00;;;-4.00;99.90;;;;;;5047537;28;20063;-80
2021/03/06 04:49:47;;;;;;;0.00;0.00;;;-3.90;99.90;;;;;;5044212;28;20047;-80
2021/03/06 04:52:13;;;;;;;0.00;0.00;;;-3.70;99.90;;;;;;5044045;28;20057;-81
2021/03/06 04:54:40;;;;;;;0.00;0.00;;;-3.80;99.90;;;;;;5044157;28;20041;-81
2021/03/06 04:57:06;;;;;;;0.00;0.00;;;-3.80;99.90;;;;;;5044124;28;20172;-81
2021/03/06 04:59:31;;;;;;;0.00;0.00;;;-3.70;99.90;;;;;;5027490;28;20045;-81
2021/03/06 05:01:57;;;;;;;0.00;0.00;;;-3.90;99.90;;;;;;5044285;28;20047;-80
2021/03/06 05:04:22;;;;;;;0.00;0.00;;;-4.00;99.90;;;;;;5043944;28;20038;-81
2021/03/06 05:06:48;;;;;;;0.00;0.00;;;-4.00;99.90;;;;;;5043981;28;20393;-81
2021/03/06 05:09:14;;;;;;;0.00;0.00;;;-4.10;99.90;;;;;;5043742;28;20091;-81
2021/03/06 05:11:39;;;;;;;0.00;0.00;;;-3.90;99.90;;;;;;5060536;28;20491;-81
2021/03/06 05:14:05;;;;;;;0.00;0.00;;;-3.90;99.90;;;;;;5043671;28;20033;-80
2021/03/06 05:16:31;;;;;;;0.00;0.00;;;-4.00;99.90;;;;;;5043680;28;20072;-81
2021/03/06 05:18:56;;;;;;;0.00;0.00;;;-4.00;99.90;;;;;;5045153;28;20034;-81
2021/03/06 05:21:22;;;;;;;0.00;0.00;;;-4.00;99.90;;;;;;5043714;28;20045;-80
2021/03/06 05:23:48;;;;;;;0.00;0.00;;;-4.00;99.90;;;;;;5043768;28;20413;-81
2021/03/06 05:26:13;;;;;;;0.00;0.00;;;-4.00;99.90;;;;;;5027291;28;20046;-81
2021/03/06 05:28:39;;;;;;;0.00;0.00;;;-4.10;99.90;;;;;;5045156;28;20030;-81
2021/03/06 05:31:04;;;;;;;0.00;0.00;;;-4.30;99.90;;;;;;5043564;28;20489;-81
2021/03/06 05:33:30;;;;;;;0.00;0.00;;;-4.20;99.90;;;;;;5043620;28;20128;-80
2021/03/06 05:35:56;;;;;;;0.00;0.00;;;-4.00;99.90;;;;;;5043375;28;20041;-81
2021/03/06 05:38:21;;;;;;;0.00;0.00;;;-4.10;99.90;;;;;;5043633;28;20118;-81
2021/03/06 05:40:49;;;;;;;0.00;0.00;;;-4.30;99.90;;;;;;5043719;28;20501;-81
2021/03/06 05:43:15;;;;;;;0.00;0.00;;;-4.20;99.90;;;;;;5043638;28;20041;-80
2021/03/06 05:45:47;;;;;;;0.00;0.00;;;-4.20;99.90;;;;;;5027200;28;20095;-81
2021/03/06 05:48:13;;;;;;;0.00;0.00;;;-4.30;99.90;;;;;;5031458;28;20101;-81
2021/03/06 05:50:39;;;;;;;0.00;0.00;;;-4.40;99.90;;;;;;5059125;28;20048;-81
2021/03/06 05:53:09;;;;;;;0.00;0.00;;;-4.40;99.90;;;;;;5067149;28;20036;-81
2021/03/06 05:55:36;;;;;;;0.00;0.00;;;-4.30;99.90;;;;;;5050241;28;20037;-81
2021/03/06 05:58:02;;;;;;;0.00;0.00;;;-4.30;99.90;;;;;;5050324;28;20037;-80
2021/03/06 06:00:29;;;;;;;0.00;0.00;;;-4.40;99.90;;;;;;5049891;28;20057;-80
2021/03/06 06:02:56;;;;;;;0.00;0.00;;;-4.50;99.90;;;;;;5066857;28;20032;-81
2021/03/06 06:05:42;;;;;;;0.00;0.00;;;-4.40;99.90;;;;;;5066787;28;20280;-81
2021/03/06 06:08:08;;;;;;;0.00;0.00;;;-4.20;99.90;;;;;;5012564;28;20471;-80
2021/03/06 06:10:35;;;;;;;0.20;0.20;;;-4.30;99.90;;;;;;5045525;28;20054;-80
2021/03/06 06:13:01;;;;;;;0.00;0.00;;;-4.20;99.90;;;;;;5012608;28;20148;-80
2021/03/06 06:15:27;;;;;;;0.00;0.00;;;-4.30;99.90;;;;;;5012553;28;20045;-81
2021/03/06 06:17:53;;;;;;;0.00;0.00;;;-4.20;99.90;;;;;;5028536;28;20037;-81
2021/03/06 06:20:21;;;;;;;0.33;0.33;;;-4.20;99.90;;;;;;5028376;28;20056;-80
2021/03/06 06:22:47;;;;;;;0.00;0.00;;;-4.40;99.90;;;;;;5028102;28;20132;-81
2021/03/06 06:25:30;;;;;;;0.00;0.00;;;-4.50;99.90;;;;;;5028105;28;20115;-81
2021/03/06 06:28:00;;;;;;;0.00;0.00;;;-4.30;99.90;;;;;;5028279;28;20037;-81
2021/03/06 06:30:26;;;;;;;0.00;0.00;;;-4.30;99.90;;;;;;5028157;28;20128;-80
2021/03/06 06:32:52;;;;;;;0.00;0.00;;;-4.30;99.90;;;;;;5011484;28;20041;-81
2021/03/06 06:35:17;;;;;;;0.00;0.00;;;-4.20;99.90;;;;;;5027994;28;20076;-81
2021/03/06 06:38:03;;;;;;;0.00;0.00;;;-4.00;99.90;;;;;;5028074;28;20123;-81
2021/03/06 06:40:31;;;;;;;0.00;0.00;;;-4.10;99.90;;;;;;5011708;28;20049;-81
2021/03/06 06:42:58;;;;;;;0.00;0.00;;;-4.00;99.90;;;;;;5011567;28;20041;-81
2021/03/06 06:45:34;;;;;;;0.00;0.00;;;-4.00;99.90;;;;;;5048405;28;20095;-81
2021/03/06 06:48:09;;;;;;;0.00;0.00;;;-3.90;99.90;;;;;;5065341;28;20160;-81
2021/03/06 06:50:35;;;;;;;0.00;0.00;;;-3.80;99.90;;;;;;5045492;28;20038;-80
2021/03/06 06:53:00;;;;;;;0.00;0.00;;;-3.90;99.90;;;;;;5045244;28;20068;-81
2021/03/06 06:55:37;;;;;;;0.00;0.00;;;-3.90;99.90;;;;;;5045115;28;20057;-80
2021/03/06 06:58:03;;;;;;;0.00;0.00;;;-4.00;99.90;;;;;;5044740;28;20470;-81
2021/03/06 07:00:30;;;;;;;0.00;0.00;;;-4.00;99.90;;;;;;5028647;28;20053;-81
2021/03/06 07:02:58;;;;;;;0.00;0.00;;;-3.80;99.90;;;;;;5028509;28;20042;-81
2021/03/06 07:05:44;;;;;;;0.00;0.00;;;-3.70;99.90;;;;;;5028361;28;20397;-80
2021/03/06 07:08:24;;;;;;;0.00;0.00;;;-3.70;99.90;;;;;;4952834;28;20043;-80
2021/03/06 07:10:50;;;;;;;0.00;0.00;;;-3.50;99.90;;;;;;4965915;29;20119;-80
2021/03/06 07:13:17;;;;;;;0.00;0.00;;;-3.50;99.90;;;;;;4965637;29;20043;-80
2021/03/06 07:15:51;;;;;;;0.00;0.00;;;-3.30;99.90;;;;;;4956499;28;20050;-80
2021/03/06 07:18:18;;;;;;;0.00;0.00;;;-3.40;99.90;;;;;;4968756;28;20034;-80
2021/03/06 07:20:44;;;;;;;0.00;0.00;;;-3.30;99.90;;;;;;4968755;28;20047;-80
2021/03/06 07:23:16;;;;;;;0.00;0.00;;;-3.10;99.90;;;;;;4949133;29;20111;-80
2021/03/06 07:25:42;;;;;;;0.00;0.00;;;-3.10;99.90;;;;;;4959045;28;20098;-80
2021/03/06 07:28:08;;;;;;;0.00;0.00;;;-2.90;99.90;;;;;;4950431;29;20071;-80
2021/03/06 07:30:34;;;;;;;0.00;0.00;;;-2.80;99.90;;;;;;4949596;29;20049;-79
2021/03/06 07:33:04;;;;;;;3.93;3.40;;;-2.60;99.90;;;;;;4949102;29;20067;-82
2021/03/06 07:35:34;;;;;;;0.00;0.00;;;-2.60;99.90;;;;;;4965518;29;20035;-81
2021/03/06 07:38:04;;;;;;;0.00;0.00;;;-2.40;99.90;;;;;;4965547;29;20051;-82
2021/03/06 07:40:32;;;;;;;0.00;0.00;;;-2.50;99.90;;;;;;4949545;29;20511;-82
2021/03/06 07:43:00;;;;;;;0.00;0.00;;;-2.30;99.90;;;;;;4965577;29;20122;-82
2021/03/06 07:45:27;;;;;;;0.00;0.00;;;-2.10;99.90;;;;;;5004497;28;20042;-82
2021/03/06 07:47:59;;;;;;;0.00;0.00;;;-1.70;99.90;;;;;;5027865;28;20113;-82
2021/03/06 07:50:27;;;;;;;0.00;0.00;;;-1.60;99.90;;;;;;5027884;28;20052;-81
2021/03/06 07:52:54;;;;;;;0.00;0.00;;;-1.60;99.90;;;;;;5028122;28;20064;-81
2021/03/06 07:55:20;;;;;;;0.00;0.00;;;-1.50;99.90;;;;;;5045517;28;20053;-82
2021/03/06 07:58:11;;;;;;;0.00;0.00;;;-1.40;99.90;;;;;;5011575;28;20041;-82
2021/03/06 08:00:51;;;;;;;0.00;0.00;;;-1.40;99.90;;;;;;5026876;28;20057;-81
2021/03/06 08:05:58;;;;;;;0.00;0.00;;;-0.80;99.90;;;;;;5045411;28;20276;-82
2021/03/06 08:08:33;;;;;;;0.00;0.00;;;-0.60;99.90;;;;;;5010910;28;20099;-81
2021/03/06 08:11:12;;;;;;;0.00;0.00;;;-0.50;99.90;;;;;;5038880;28;20186;-81
2021/03/06 08:13:57;;;;;;;0.00;0.00;;;-0.40;99.90;;;;;;5063561;28;20041;-81
2021/03/06 08:18:48;;;;;;;0.00;0.00;;;-0.10;99.90;;;;;;5041234;28;20382;-81
2021/03/06 08:21:34;;;;;;;0.00;0.00;;;0.10;99.90;;;;;;5040215;28;20052;-82
2021/03/06 08:24:15;;;;;;;0.00;0.00;;;0.40;99.90;;;;;;5056859;28;20037;-82
2021/03/06 08:26:42;;;;;;;0.00;0.00;;;0.60;99.90;;;;;;5063746;28;20040;-82
2021/03/06 08:29:21;;;;;;;0.00;0.00;;;0.70;99.90;;;;;;5064913;28;20044;-82
2021/03/06 08:31:57;;;;;;;0.00;0.00;;;0.70;99.90;;;;;;5063564;28;20037;-82
2021/03/06 08:34:35;;;;;;;0.00;0.00;;;0.80;99.90;;;;;;5044974;28;20525;-83
2021/03/06 08:37:16;;;;;;;0.00;0.00;;;0.90;99.90;;;;;;5054291;28;20042;-82
2021/03/06 08:40:05;;;;;;;0.00;0.00;;;1.00;99.90;;;;;;5038140;28;20061;-82
2021/03/06 08:42:48;;;;;;;0.00;0.00;;;1.10;99.90;;;;;;5056984;28;20072;-82
2021/03/06 08:45:17;;;;;;;0.00;0.00;;;1.30;99.90;;;;;;5035163;28;20064;-82
2021/03/06 08:47:45;;;;;;;0.00;0.00;;;1.40;99.90;;;;;;5038818;28;20033;-82
2021/03/06 08:50:19;;;;;;;0.00;0.00;;;1.50;99.90;;;;;;5038155;28;20041;-82
2021/03/06 08:53:06;;;;;;;0.00;0.00;;;1.60;99.90;;;;;;5034225;28;20037;-82
2021/03/06 08:55:34;;;;;;;0.00;0.00;;;1.80;99.90;;;;;;5048442;28;20045;-82
2021/03/06 08:58:07;;;;;;;0.00;0.00;;;1.80;99.90;;;;;;5043404;28;20061;-82
2021/03/06 09:00:35;;;;;;;0.00;0.00;;;1.90;99.90;;;;;;5026619;28;20046;-83
2021/03/06 09:03:24;;;;;;;0.00;0.00;;;2.00;99.90;;;;;;5043433;28;20038;-83
2021/03/06 09:05:56;;;;;;;0.00;0.00;;;2.10;99.90;;;;;;5028440;28;20137;-82
2021/03/06 09:08:27;;;;;;;0.00;0.00;;;2.20;99.90;;;;;;5046338;28;20040;-82
2021/03/06 09:10:57;;;;;;;0.00;0.00;;;2.40;99.90;;;;;;5046427;28;20055;-82
2021/03/06 09:13:28;;;;;;;0.00;0.00;;;2.50;99.90;;;;;;5050345;28;20039;-81
2021/03/06 09:16:06;;;;;;;0.00;0.00;;;2.50;99.90;;;;;;5042473;28;20045;-82
2021/03/06 09:18:36;;;;;;;0.00;0.00;;;2.60;99.90;;;;;;5022233;28;20064;-83
2021/03/06 09:21:15;;;;;;;0.00;0.00;;;2.70;99.90;;;;;;5048010;28;20076;-82
2021/03/06 09:23:42;;;;;;;0.00;0.00;;;2.90;99.90;;;;;;5050411;28;20043;-83
2021/03/06 09:26:16;;;;;;;0.00;0.00;;;2.90;99.90;;;;;;5050624;28;20045;-83
2021/03/06 09:28:44;;;;;;;0.00;0.00;;;3.00;99.90;;;;;;5050512;28;20045;-83
2021/03/06 09:31:28;;;;;;;0.00;0.00;;;3.10;99.90;;;;;;5067032;28;20500;-83
2021/03/06 09:33:57;;;;;;;0.00;0.00;;;3.30;99.90;;;;;;5050781;28;20041;-82
2021/03/06 09:36:28;;;;;;;0.00;0.00;;;3.50;99.90;;;;;;5050551;28;20458;-85
2021/03/06 09:38:58;;;;;;;0.00;0.00;;;3.60;99.90;;;;;;5043707;28;20562;-83
2021/03/06 09:41:33;;;;;;;0.00;0.00;;;3.70;99.90;;;;;;5047406;28;20468;-83
2021/03/06 09:44:00;;;;;;;0.00;0.00;;;3.80;99.90;;;;;;5046440;28;20041;-83
2021/03/06 09:46:30;;;;;;;0.00;0.00;;;4.00;99.90;;;;;;5047745;28;20509;-83
2021/03/06 09:48:58;;;;;;;0.00;0.00;;;3.90;99.90;;;;;;5048878;28;20037;-83
2021/03/06 09:51:36;;;;;;;0.00;0.00;;;4.00;99.90;;;;;;5036945;28;20056;-83
2021/03/06 09:54:01;;;;;;;0.00;0.00;;;4.00;99.90;;;;;;5049813;28;20056;-84
2021/03/06 09:56:28;;;;;;;0.73;0.70;;;4.20;99.90;;;;;;5049870;28;20052;-83
2021/03/06 09:59:02;;;;;;;0.00;0.00;;;4.20;99.90;;;;;;5061794;28;20072;-83
2021/03/06 10:01:30;;;;;;;0.00;0.00;;;4.40;99.90;;;;;;5041607;28;20048;-83
2021/03/06 10:03:56;;;;;;;0.00;0.00;;;4.50;99.90;;;;;;5049780;28;20396;-83
2021/03/06 10:06:25;;;;;;;0.00;0.00;;;4.60;99.90;;;;;;5049723;28;20112;-83
2021/03/06 10:08:57;;;;;;;0.00;0.00;;;4.40;99.90;;;;;;5044762;28;20075;-83
2021/03/06 10:11:31;;;;;;;0.00;0.00;;;4.50;99.90;;;;;;5034239;28;20049;-83
2021/03/06 10:13:58;;;;;;;0.00;0.00;;;4.50;99.90;;;;;;5050678;28;20041;-82
2021/03/06 10:16:24;;;;;;;0.00;0.00;;;4.60;99.90;;;;;;5048091;28;20479;-82
2021/03/06 10:18:50;;;;;;;0.00;0.00;;;4.70;99.90;;;;;;5033198;28;20037;-82
2021/03/06 10:21:22;;;;;;;0.00;0.00;;;4.60;99.90;;;;;;5049964;28;20103;-83
2021/03/06 10:23:59;;;;;;;0.00;0.00;;;4.50;99.90;;;;;;5033213;28;20401;-82
2021/03/06 10:26:26;;;;;;;0.00;0.00;;;4.50;99.90;;;;;;5028849;28;20041;-84
2021/03/06 10:28:58;;;;;;;0.00;0.00;;;4.40;99.90;;;;;;5049978;28;20037;-84
2021/03/06 10:31:42;;;;;;;0.00;0.00;;;4.30;99.90;;;;;;5047249;28;20045;-83
2021/03/06 10:34:25;;;;;;;0.00;0.00;;;4.20;99.90;;;;;;5045782;28;20068;-84
2021/03/06 10:37:12;;;;;;;0.00;0.00;;;4.30;99.90;;;;;;5046213;28;20038;-83
2021/03/06 10:39:59;;;;;;;0.00;0.00;;;4.40;99.90;;;;;;5046406;28;20060;-83
2021/03/06 10:42:43;;;;;;;0.00;0.00;;;4.60;99.90;;;;;;5046338;28;20052;-83
2021/03/06 10:45:22;;;;;;;0.00;0.00;;;4.70;99.90;;;;;;5046227;28;20049;-83
2021/03/06 10:47:49;;;;;;;0.00;0.00;;;4.80;99.90;;;;;;5046473;28;20045;-84
2021/03/06 10:50:39;;;;;;;0.00;0.00;;;5.00;99.90;;;;;;5046459;28;20042;-84
2021/03/06 10:53:15;;;;;;;0.00;0.00;;;5.00;99.90;;;;;;5029568;28;20071;-84
2021/03/06 10:55:43;;;;;;;0.00;0.00;;;5.30;99.90;;;;;;5045914;28;20068;-84
2021/03/06 10:58:09;;;;;;;0.00;0.00;;;5.30;99.90;;;;;;5045814;28;20042;-84
2021/03/06 11:00:35;;;;;;;0.00;0.00;;;5.00;99.90;;;;;;5030208;28;20053;-84
2021/03/06 11:03:02;;;;;;;0.00;0.00;;;5.20;99.90;;;;;;5048360;28;20033;-83
2021/03/06 11:05:56;;;;;;;0.00;0.00;;;5.40;99.90;;;;;;5026201;28;20038;-85
2021/03/06 11:08:22;;;;;;;0.00;0.00;;;5.60;99.90;;;;;;5004602;28;20368;-84
2021/03/06 11:10:50;;;;;;;0.00;0.00;;;5.60;99.90;;;;;;4988525;28;20054;-83
2021/03/06 11:13:17;;;;;;;0.00;0.00;;;5.70;99.90;;;;;;4988307;28;20082;-83
2021/03/06 11:15:49;;;;;;;0.00;0.00;;;5.80;99.90;;;;;;4988285;28;20042;-84
2021/03/06 11:18:14;;;;;;;0.00;0.00;;;6.00;99.90;;;;;;5004512;28;20102;-83
2021/03/06 11:20:40;;;;;;;0.00;0.00;;;5.80;99.90;;;;;;5004619;28;20058;-83
2021/03/06 11:23:07;;;;;;;0.00;0.00;;;5.90;99.90;;;;;;5004135;28;20039;-83
2021/03/06 11:25:33;;;;;;;0.00;0.00;;;5.80;99.90;;;;;;5004737;28;20053;-83
2021/03/06 11:28:05;;;;;;;0.00;0.00;;;6.00;99.90;;;;;;4988207;28;20116;-84
2021/03/06 11:30:36;;;;;;;0.00;0.00;;;6.20;99.90;;;;;;4988147;28;20038;-84
2021/03/06 11:33:04;;;;;;;0.00;0.00;;;6.20;99.90;;;;;;4967918;28;20046;-84
2021/03/06 11:35:31;;;;;;;0.00;0.00;;;6.50;99.90;;;;;;5002603;28;20045;-84
2021/03/06 11:37:58;;;;;;;0.00;0.00;;;6.40;99.90;;;;;;5002594;28;20108;-84
2021/03/06 11:40:27;;;;;;;0.00;0.00;;;6.50;99.90;;;;;;4986361;28;20141;-84
2021/03/06 11:42:53;;;;;;;0.00;0.00;;;6.60;99.90;;;;;;4986313;28;20053;-83
2021/03/06 11:45:21;;;;;;;0.00;0.00;;;6.70;99.90;;;;;;5019709;28;20039;-84
2021/03/06 11:47:48;;;;;;;0.00;0.00;;;6.70;99.90;;;;;;5046877;28;20037;-83
2021/03/06 11:50:16;;;;;;;0.00;0.00;;;6.60;99.90;;;;;;5039830;28;20109;-84
2021/03/06 11:52:42;;;;;;;0.00;0.00;;;6.70;99.90;;;;;;5039543;28;20098;-83
2021/03/06 11:55:18;;;;;;;0.00;0.00;;;6.60;99.90;;;;;;5035606;28;20036;-83
2021/03/06 11:57:44;;;;;;;0.00;0.00;;;6.50;99.90;;;;;;5017758;28;20037;-83
2021/03/06 12:00:11;;;;;;;0.00;0.00;;;6.40;99.90;;;;;;5040358;28;20060;-83
2021/03/06 12:02:37;;;;;;;0.00;0.00;;;6.60;99.90;;;;;;5032733;28;20041;-83
2021/03/06 12:05:05;;;;;;;0.00;0.00;;;6.60;99.90;;;;;;5038449;28;20041;-84
2021/03/06 12:07:32;;;;;;;0.00;0.00;;;6.70;99.90;;;;;;5027990;28;20045;-84
2021/03/06 12:09:58;;;;;;;0.00;0.00;;;6.70;99.90;;;;;;5048119;28;20045;-84
2021/03/06 12:12:23;;;;;;;0.00;0.00;;;6.60;99.90;;;;;;5055113;28;20068;-84
2021/03/06 12:14:49;;;;;;;0.00;0.00;;;6.60;99.90;;;;;;5040159;28;20037;-84
2021/03/06 12:17:15;;;;;;;0.00;0.00;;;6.60;99.90;;;;;;5039836;28;20092;-83
2021/03/06 12:19:40;;;;;;;0.00;0.00;;;6.80;99.90;;;;;;5041539;28;20045;-84
2021/03/06 12:22:06;;;;;;;0.00;0.00;;;6.60;99.90;;;;;;5040810;28;20067;-84
2021/03/06 12:24:31;;;;;;;0.00;0.00;;;6.70;99.90;;;;;;5046148;28;20072;-83
2021/03/06 12:26:57;;;;;;;0.00;0.00;;;6.80;99.90;;;;;;5049453;28;20084;-83
2021/03/06 12:29:23;;;;;;;0.00;0.00;;;6.80;99.90;;;;;;5052282;28;20402;-84
2021/03/06 12:31:49;;;;;;;0.00;0.00;;;7.00;99.90;;;;;;5026286;28;20083;-83
2021/03/06 12:34:15;;;;;;;0.00;0.00;;;7.00;99.90;;;;;;5039886;28;20037;-83
2021/03/06 12:36:41;;;;;;;0.00;0.00;;;6.90;99.90;;;;;;5037907;28;20076;-84
2021/03/06 12:39:07;;;;;;;0.00;0.00;;;7.10;99.90;;;;;;5045321;28;20034;-84
2021/03/06 12:41:34;;;;;;;0.00;0.00;;;7.20;99.90;;;;;;5062364;28;20132;-83
2021/03/06 12:43:59;;;;;;;0.00;0.00;;;7.30;99.90;;;;;;5041089;28;20085;-84
2021/03/06 12:46:25;;;;;;;0.00;0.00;;;7.40;99.90;;;;;;5053328;28;20030;-83
2021/03/06 12:48:52;;;;;;;0.00;0.00;;;7.70;99.90;;;;;;5044223;28;20033;-82
2021/03/06 12:51:18;;;;;;;0.00;0.00;;;7.80;99.90;;;;;;5045646;28;20051;-83
2021/03/06 12:53:44;;;;;;;0.00;0.00;;;8.10;99.90;;;;;;5031264;28;20513;-83
2021/03/06 12:56:10;;;;;;;0.00;0.00;;;8.10;99.90;;;;;;5062413;28;20048;-83
2021/03/06 12:58:35;;;;;;;0.00;0.00;;;8.60;99.90;;;;;;5045501;28;20055;-83
2021/03/06 13:01:01;;;;;;;0.00;0.00;;;8.40;99.90;;;;;;5051928;28;20049;-84
2021/03/06 13:03:27;;;;;;;0.00;0.00;;;8.50;99.90;;;;;;5051751;28;20050;-83
2021/03/06 13:05:52;;;;;;;0.00;0.00;;;8.80;99.90;;;;;;5047838;28;20037;-84
2021/03/06 13:08:18;;;;;;;0.00;0.00;;;8.80;99.90;;;;;;5042632;28;20062;-84
2021/03/06 13:10:43;;;;;;;0.00;0.00;;;8.60;99.90;;;;;;5037309;28;20056;-83